createdAt,value
2018-02-14T00:02:20.303Z,-2.50
2018-02-14T00:04:59.587Z,-2.50
2018-02-14T00:07:29.438Z,-2.40
2018-02-14T00:10:01.534Z,-2.50
2018-02-14T00:12:30.614Z,-2.40
2018-02-14T00:15:04.088Z,-2.40
2018-02-14T00:17:32.682Z,-2.50
2018-02-14T00:20:03.458Z,-2.50
2018-02-14T00:22:37.345Z,-2.50
2018-02-14T00:25:10.296Z,-2.60
2018-02-14T00:27:50.838Z,-2.60
2018-02-14T00:30:19.868Z,-2.60
2018-02-14T00:32:49.890Z,-2.60
2018-02-14T00:35:17.992Z,-2.60
2018-02-14T00:38:02.796Z,-2.70
2018-02-14T00:40:30.887Z,-2.70
2018-02-14T00:42:59.984Z,-2.80
2018-02-14T00:45:39.937Z,-2.80
2018-02-14T00:48:12.823Z,-2.80
2018-02-14T00:50:40.957Z,-2.80
2018-02-14T00:53:23.797Z,-2.90
2018-02-14T00:55:52.229Z,-2.90
2018-02-14T01:01:20.251Z,-2.90
2018-02-14T01:04:03.711Z,-2.90
2018-02-14T01:06:31.956Z,-2.90
2018-02-14T01:09:18.562Z,-3.10
2018-02-14T01:11:47.617Z,-3.10
2018-02-14T01:14:21.899Z,-3.10
2018-02-14T01:16:56.029Z,-3.10
2018-02-14T01:19:24.384Z,-3.10
2018-02-14T01:21:53.442Z,-3.10
2018-02-14T01:24:23.456Z,-3.00
2018-02-14T01:29:50.298Z,-3.00
2018-02-14T01:32:26.042Z,-3.00
2018-02-14T01:35:05.943Z,-2.90
2018-02-14T01:37:34.078Z,-3.00
2018-02-14T01:40:08.415Z,-3.00
2018-02-14T01:42:38.581Z,-3.00
2018-02-14T01:45:32.658Z,-3.00
2018-02-14T01:48:04.406Z,-3.10
2018-02-14T01:50:39.121Z,-3.10
2018-02-14T01:53:08.002Z,-3.10
2018-02-14T01:55:44.186Z,-3.10
2018-02-14T01:58:13.743Z,-3.10
2018-02-14T02:00:54.383Z,-3.10
2018-02-14T02:03:23.242Z,-3.10
2018-02-14T02:05:51.361Z,-3.10
2018-02-14T02:08:25.270Z,-3.10
2018-02-14T02:11:17.930Z,-3.10
2018-02-14T02:13:46.036Z,-3.10
2018-02-14T02:16:26.791Z,-3.10
2018-02-14T02:21:56.591Z,-3.20
2018-02-14T02:24:24.699Z,-3.20
2018-02-14T02:27:07.390Z,-3.30
2018-02-14T02:29:36.237Z,-3.30
2018-02-14T02:32:19.067Z,-3.30
2018-02-14T02:34:47.199Z,-3.30
2018-02-14T02:37:27.894Z,-3.30
2018-02-14T02:40:11.191Z,-3.30
2018-02-14T02:42:39.294Z,-3.30
2018-02-14T02:45:10.391Z,-3.30
2018-02-14T02:47:39.406Z,-3.30
2018-02-14T02:50:21.043Z,-3.30
2018-02-14T02:52:53.257Z,-3.30
2018-02-14T02:55:42.327Z,-3.20
2018-02-14T02:58:15.757Z,-3.30
2018-02-14T03:00:48.538Z,-3.30
2018-02-14T03:03:38.210Z,-3.30
2018-02-14T03:06:08.863Z,-3.30
2018-02-14T03:08:37.847Z,-3.20
2018-02-14T03:11:09.242Z,-3.30
2018-02-14T03:13:39.317Z,-3.30
2018-02-14T03:16:09.361Z,-3.30
2018-02-14T03:18:39.475Z,-3.30
2018-02-14T03:21:07.558Z,-3.30
2018-02-14T03:23:36.710Z,-3.30
2018-02-14T03:26:26.007Z,-3.40
2018-02-14T03:28:54.071Z,-3.40
2018-02-14T03:31:25.215Z,-3.40
2018-02-14T03:33:54.270Z,-3.50
2018-02-14T03:36:25.571Z,-3.50
2018-02-14T03:38:54.642Z,-3.50
2018-02-14T03:41:34.100Z,-3.50
2018-02-14T03:44:15.314Z,-3.50
2018-02-14T03:46:47.590Z,-3.50
2018-02-14T03:49:16.662Z,-3.50
2018-02-14T03:51:44.779Z,-3.50
2018-02-14T03:54:30.499Z,-3.50
2018-02-14T03:57:09.154Z,-3.50
2018-02-14T03:59:37.409Z,-3.60
2018-02-14T04:02:18.396Z,-3.60
2018-02-14T04:04:49.661Z,-3.60
2018-02-14T04:07:29.144Z,-3.60
2018-02-14T04:10:23.221Z,-3.70
2018-02-14T04:15:52.147Z,-3.70
2018-02-14T04:18:24.822Z,-3.80
2018-02-14T04:20:54.829Z,-3.80
2018-02-14T04:23:22.934Z,-3.80
2018-02-14T04:25:53.214Z,-3.90
2018-02-14T04:28:45.769Z,-3.90
2018-02-14T04:31:34.322Z,-3.90
2018-02-14T04:34:02.595Z,-3.90
2018-02-14T04:36:30.712Z,-3.90
2018-02-14T04:39:11.499Z,-3.90
2018-02-14T04:41:42.423Z,-3.90
2018-02-14T04:44:16.312Z,-4.00
2018-02-14T04:46:44.418Z,-4.00
2018-02-14T04:49:14.540Z,-4.00
2018-02-14T04:51:44.649Z,-4.00
2018-02-14T04:54:24.430Z,-4.00
2018-02-14T04:56:52.622Z,-4.00
2018-02-14T04:59:26.552Z,-4.00
2018-02-14T05:01:59.435Z,-4.10
2018-02-14T05:04:32.250Z,-4.10
2018-02-14T05:07:00.381Z,-4.10
2018-02-14T05:09:46.341Z,-4.00
2018-02-14T05:12:21.326Z,-4.10
2018-02-14T05:14:51.651Z,-4.10
2018-02-14T05:17:24.899Z,-4.10
2018-02-14T05:19:53.077Z,-4.10
2018-02-14T05:22:29.568Z,-4.10
2018-02-14T05:25:05.011Z,-4.10
2018-02-14T05:27:33.120Z,-4.10
2018-02-14T05:30:13.802Z,-4.10
2018-02-14T05:32:41.967Z,-4.00
2018-02-14T05:35:15.111Z,-3.90
2018-02-14T05:37:44.015Z,-3.90
2018-02-14T05:40:14.094Z,-3.90
2018-02-14T05:42:48.230Z,-4.00
2018-02-14T05:45:22.979Z,-4.00
2018-02-14T05:47:51.332Z,-4.00
2018-02-14T05:50:27.536Z,-4.00
2018-02-14T05:52:56.469Z,-4.10
2018-02-14T05:55:24.722Z,-4.10
2018-02-14T05:57:52.920Z,-4.10
2018-02-14T06:00:24.995Z,-4.10
2018-02-14T06:02:54.081Z,-4.20
2018-02-14T06:05:35.912Z,-4.20
2018-02-14T06:08:05.897Z,-4.20
2018-02-14T06:10:34.720Z,-4.20
2018-02-14T06:13:02.901Z,-4.20
2018-02-14T06:15:31.115Z,-4.20
2018-02-14T06:17:59.227Z,-4.20
2018-02-14T06:20:28.244Z,-4.20
2018-02-14T06:22:56.348Z,-4.20
2018-02-14T06:25:24.544Z,-4.20
2018-02-14T06:27:53.410Z,-4.10
2018-02-14T06:30:21.624Z,-4.10
2018-02-14T06:32:50.490Z,-4.10
2018-02-14T06:35:19.568Z,-4.20
2018-02-14T06:37:50.902Z,-4.10
2018-02-14T06:40:19.017Z,-4.20
2018-02-14T06:42:47.174Z,-4.20
2018-02-14T06:45:16.267Z,-4.20
2018-02-14T06:47:44.371Z,-4.20
2018-02-14T06:50:12.542Z,-4.20
2018-02-14T06:52:40.651Z,-4.20
2018-02-14T06:55:08.902Z,-4.20
2018-02-14T06:57:37.101Z,-4.20
2018-02-14T07:00:05.222Z,-4.20
2018-02-14T07:02:33.412Z,-4.10
2018-02-14T07:05:03.428Z,-4.10
2018-02-14T07:07:31.519Z,-4.10
2018-02-14T07:09:59.706Z,-4.10
2018-02-14T07:12:27.822Z,-4.10
2018-02-14T07:14:55.935Z,-4.10
2018-02-14T07:17:24.185Z,-4.10
2018-02-14T07:19:52.311Z,-4.10
2018-02-14T07:22:21.186Z,-4.10
2018-02-14T07:24:50.256Z,-4.10
2018-02-14T07:27:18.503Z,-4.00
2018-02-14T07:29:46.630Z,-3.90
2018-02-14T07:32:14.818Z,-3.90
2018-02-14T07:34:43.997Z,-3.80
2018-02-14T07:37:12.150Z,-3.70
2018-02-14T07:39:40.312Z,-3.60
2018-02-14T07:42:08.543Z,-3.60
2018-02-14T07:44:37.655Z,-3.60
2018-02-14T07:47:05.814Z,-3.50
2018-02-14T07:49:37.557Z,-3.60
2018-02-14T07:52:05.662Z,-3.50
2018-02-14T07:54:33.953Z,-3.50
2018-02-14T07:57:02.075Z,-3.50
2018-02-14T07:59:31.091Z,-3.40
2018-02-14T08:01:59.346Z,-3.40
2018-02-14T08:04:27.541Z,-3.30
2018-02-14T08:06:56.470Z,-3.20
2018-02-14T08:09:24.702Z,-3.20
2018-02-14T08:11:52.793Z,-3.20
2018-02-14T08:14:21.043Z,-3.10
2018-02-14T08:16:49.179Z,-3.10
2018-02-14T08:19:17.424Z,-3.00
2018-02-14T08:21:45.869Z,-3.00
2018-02-14T08:24:14.929Z,-2.90
2018-02-14T08:26:43.990Z,-2.80
2018-02-14T08:29:12.107Z,-2.70
2018-02-14T08:31:40.298Z,-2.70
2018-02-14T08:34:08.553Z,-2.70
2018-02-14T08:36:36.654Z,-2.60
2018-02-14T08:39:04.795Z,-2.60
2018-02-14T08:41:33.709Z,-2.50
2018-02-14T08:44:01.914Z,-2.50
2018-02-14T08:46:30.087Z,-2.40
2018-02-14T08:48:58.366Z,-2.30
2018-02-14T08:51:27.310Z,-2.20
2018-02-14T08:53:55.456Z,-2.20
2018-02-14T08:56:27.083Z,-2.20
2018-02-14T08:58:55.195Z,-2.10
2018-02-14T09:01:24.348Z,-2.00
2018-02-14T09:03:52.450Z,-2.00
2018-02-14T09:06:20.586Z,-1.90
2018-02-14T09:08:49.689Z,-1.90
2018-02-14T09:11:17.783Z,-1.80
2018-02-14T09:13:46.646Z,-1.70
2018-02-14T09:16:15.846Z,-1.70
2018-02-14T09:18:44.134Z,-1.70
2018-02-14T09:21:12.464Z,-1.60
2018-02-14T09:23:40.602Z,-1.50
2018-02-14T09:26:09.945Z,-1.50
2018-02-14T09:28:38.154Z,-1.40
2018-02-14T09:31:07.032Z,-1.40
2018-02-14T09:33:36.035Z,-1.30
2018-02-14T09:36:04.217Z,-1.20
2018-02-14T09:38:32.371Z,-1.20
2018-02-14T09:41:00.598Z,-1.10
2018-02-14T09:43:28.755Z,-1.00
2018-02-14T09:45:56.842Z,-1.00
2018-02-14T09:48:26.008Z,-0.90
2018-02-14T09:50:54.258Z,-0.90
2018-02-14T09:53:22.398Z,-0.80
2018-02-14T09:55:51.272Z,-0.70
2018-02-14T09:58:19.406Z,-0.70
2018-02-14T10:00:47.603Z,-0.60
2018-02-14T10:03:16.660Z,-0.60
2018-02-14T10:05:45.676Z,-0.50
2018-02-14T10:08:13.957Z,-0.50
2018-02-14T10:10:42.155Z,-0.40
2018-02-14T10:13:11.350Z,-0.40
2018-02-14T10:15:40.400Z,-0.20
2018-02-14T10:18:08.870Z,-0.20
2018-02-14T10:20:37.084Z,-0.20
2018-02-14T10:23:05.307Z,-0.10
2018-02-14T10:25:37.416Z,-0.10
2018-02-14T10:28:06.791Z,0.10
2018-02-14T10:30:35.001Z,0.10
2018-02-14T10:33:03.100Z,0.10
2018-02-14T10:35:36.802Z,0.20
2018-02-14T10:38:05.087Z,0.30
2018-02-14T10:40:34.204Z,0.30
2018-02-14T10:43:03.119Z,0.50
2018-02-14T10:45:32.085Z,0.60
2018-02-14T10:48:00.307Z,0.60
2018-02-14T10:50:30.295Z,0.80
2018-02-14T10:52:58.906Z,0.80
2018-02-14T10:55:27.399Z,0.90
2018-02-14T10:57:57.682Z,0.90
2018-02-14T11:00:31.685Z,1.00
2018-02-14T11:03:05.510Z,1.10
2018-02-14T11:05:33.619Z,1.20
2018-02-14T11:08:01.783Z,1.30
2018-02-14T11:10:30.861Z,1.40
2018-02-14T11:12:58.966Z,1.40
2018-02-14T11:15:28.388Z,1.50
2018-02-14T11:17:59.264Z,1.60
2018-02-14T11:20:28.449Z,1.60
2018-02-14T11:22:56.750Z,1.70
2018-02-14T11:25:24.871Z,1.80
2018-02-14T11:27:53.967Z,1.80
2018-02-14T11:30:22.210Z,1.90
2018-02-14T11:32:52.291Z,1.90
2018-02-14T11:35:22.604Z,2.00
2018-02-14T11:37:58.262Z,2.10
2018-02-14T11:40:27.857Z,2.10
2018-02-14T11:42:56.009Z,2.20
2018-02-14T11:45:27.034Z,2.30
2018-02-14T11:47:55.254Z,2.30
2018-02-14T11:50:23.361Z,2.40
2018-02-14T11:52:51.559Z,2.40
2018-02-14T11:55:19.722Z,2.40
2018-02-14T12:03:49.746Z,2.60
2018-02-14T12:09:13.557Z,2.70
2018-02-14T12:14:23.387Z,2.90
2018-02-14T12:17:17.319Z,3.00
2018-02-14T12:22:21.261Z,3.10
2018-02-14T12:24:50.075Z,3.20
2018-02-14T12:27:22.594Z,3.20
2018-02-14T12:29:53.588Z,3.20
2018-02-14T12:32:21.879Z,3.20
2018-02-14T12:34:50.011Z,3.30
2018-02-14T12:37:18.166Z,3.40
2018-02-14T12:39:46.539Z,3.40
2018-02-14T12:42:14.827Z,3.40
2018-02-14T12:44:42.952Z,3.40
2018-02-14T12:47:11.994Z,3.40
2018-02-14T12:49:40.251Z,3.50
2018-02-14T12:52:09.527Z,3.50
2018-02-14T12:54:40.427Z,3.60
2018-02-14T12:57:13.932Z,3.60
2018-02-14T12:59:42.018Z,3.60
2018-02-14T13:02:10.389Z,3.60
2018-02-14T13:04:38.913Z,3.60
2018-02-14T13:07:07.602Z,3.60
2018-02-14T13:09:36.790Z,3.70
2018-02-14T13:12:05.137Z,3.60
2018-02-14T13:14:33.212Z,3.60
2018-02-14T13:17:02.479Z,3.70
2018-02-14T13:19:34.511Z,3.70
2018-02-14T13:22:03.400Z,3.70
2018-02-14T13:24:40.325Z,3.70
2018-02-14T13:27:09.200Z,3.60
2018-02-14T13:29:41.069Z,3.60
2018-02-14T13:32:09.291Z,3.60
2018-02-14T13:34:37.891Z,3.60
2018-02-14T13:37:08.403Z,3.60
2018-02-14T13:39:39.606Z,3.60
2018-02-14T13:42:07.873Z,3.70
2018-02-14T13:44:36.268Z,3.70
2018-02-14T13:47:04.897Z,3.70
2018-02-14T13:49:35.007Z,3.60
2018-02-14T13:52:03.166Z,3.70
2018-02-14T13:54:31.339Z,3.70
2018-02-14T13:56:59.578Z,3.70
2018-02-14T13:59:33.155Z,3.70
2018-02-14T14:02:02.091Z,3.60
2018-02-14T14:04:30.451Z,3.70
2018-02-14T14:06:58.990Z,3.60
2018-02-14T14:09:27.235Z,3.60
2018-02-14T14:11:55.455Z,3.60
2018-02-14T14:14:23.779Z,3.70
2018-02-14T14:16:51.858Z,3.60
2018-02-14T14:19:20.399Z,3.60
2018-02-14T14:21:48.519Z,3.60
2018-02-14T14:24:20.327Z,3.60
2018-02-14T14:29:48.282Z,3.60
2018-02-14T14:32:17.955Z,3.60
2018-02-14T14:34:49.744Z,3.50
2018-02-14T14:37:18.007Z,3.50
2018-02-14T14:39:47.494Z,3.60
2018-02-14T14:42:15.926Z,3.60
2018-02-14T14:44:44.080Z,3.60
2018-02-14T14:47:12.210Z,3.50
2018-02-14T14:49:41.203Z,3.50
2018-02-14T14:52:10.355Z,3.50
2018-02-14T14:54:38.662Z,3.50
2018-02-14T14:57:06.752Z,3.40
2018-02-14T14:59:37.125Z,3.40
2018-02-14T15:02:05.227Z,3.40
2018-02-14T15:04:33.444Z,3.40
2018-02-14T15:07:01.552Z,3.40
2018-02-14T15:09:30.726Z,3.40
2018-02-14T15:11:58.832Z,3.40
2018-02-14T15:14:29.465Z,3.30
2018-02-14T15:16:57.577Z,3.30
2018-02-14T15:19:26.099Z,3.20
2018-02-14T15:22:03.263Z,3.20
2018-02-14T15:24:32.041Z,3.10
2018-02-14T15:27:00.359Z,3.10
2018-02-14T15:29:29.340Z,3.10
2018-02-14T15:31:57.450Z,3.10
2018-02-14T15:34:27.833Z,3.00
2018-02-14T15:36:56.006Z,3.00
2018-02-14T15:39:29.748Z,2.90
2018-02-14T15:41:58.277Z,2.90
2018-02-14T15:44:26.426Z,2.80
2018-02-14T15:46:55.610Z,2.70
2018-02-14T15:49:24.697Z,2.60
2018-02-14T15:51:52.878Z,2.60
2018-02-14T15:54:21.067Z,2.60
2018-02-14T15:56:50.454Z,2.60
2018-02-14T15:59:22.496Z,2.60
2018-02-14T16:01:52.680Z,2.50
2018-02-14T16:04:20.780Z,2.50
2018-02-14T16:06:49.015Z,2.50
2018-02-14T16:09:17.104Z,2.40
2018-02-14T16:11:45.365Z,2.30
2018-02-14T16:14:14.441Z,2.30
2018-02-14T16:16:42.922Z,2.30
2018-02-14T16:19:11.214Z,2.30
2018-02-14T16:21:47.851Z,2.30
2018-02-14T16:27:17.523Z,2.10
2018-02-14T16:29:46.783Z,2.10
2018-02-14T16:32:18.960Z,2.00
2018-02-14T16:34:48.050Z,2.00
2018-02-14T16:37:16.225Z,1.90
2018-02-14T16:39:51.061Z,1.90
2018-02-14T16:42:23.394Z,1.90
2018-02-14T16:44:52.849Z,1.90
2018-02-14T16:47:28.522Z,1.80
2018-02-14T16:49:56.740Z,1.70
2018-02-14T16:52:24.881Z,1.70
2018-02-14T16:54:54.050Z,1.60
2018-02-14T16:57:22.166Z,1.60
2018-02-14T16:59:50.415Z,1.50
2018-02-14T17:02:18.845Z,1.50
2018-02-14T17:04:51.420Z,1.50
2018-02-14T17:07:22.958Z,1.50
2018-02-14T17:09:51.500Z,1.50
2018-02-14T17:12:22.406Z,1.40
2018-02-14T17:14:50.520Z,1.40
2018-02-14T17:17:18.758Z,1.40
2018-02-14T17:19:47.815Z,1.40
2018-02-14T17:25:21.218Z,1.30
2018-02-14T17:27:54.253Z,1.30
2018-02-14T17:30:25.376Z,1.20
2018-02-14T17:32:54.574Z,1.20
2018-02-14T17:35:22.963Z,1.10
2018-02-14T17:37:54.185Z,1.10
2018-02-14T17:40:22.352Z,1.10
2018-02-14T17:42:50.511Z,1.00
2018-02-14T17:45:23.009Z,0.90
2018-02-14T17:47:53.198Z,0.90
2018-02-14T17:50:21.305Z,0.90
2018-02-14T17:52:50.372Z,0.90
2018-02-14T17:55:18.557Z,0.90
2018-02-14T17:57:47.107Z,0.90
2018-02-14T18:00:15.925Z,0.80
2018-02-14T18:02:44.588Z,0.80
2018-02-14T18:05:17.004Z,0.80
2018-02-14T18:07:52.177Z,0.80
2018-02-14T18:10:20.487Z,0.80
2018-02-14T18:12:53.788Z,0.70
2018-02-14T18:15:22.269Z,0.70
2018-02-14T18:17:54.750Z,0.70
2018-02-14T18:20:22.872Z,0.70
2018-02-14T18:22:52.108Z,0.70
2018-02-14T18:25:28.827Z,0.60
2018-02-14T18:28:00.743Z,0.60
2018-02-14T18:30:34.832Z,0.60
2018-02-14T18:33:08.988Z,0.60
2018-02-14T18:35:39.264Z,0.50
2018-02-14T18:38:09.446Z,0.50
2018-02-14T18:40:38.354Z,0.50
2018-02-14T18:43:10.541Z,0.50
2018-02-14T18:45:38.708Z,0.40
2018-02-14T18:48:06.880Z,0.40
2018-02-14T18:50:38.959Z,0.40
2018-02-14T18:53:21.014Z,0.40
2018-02-14T18:55:59.414Z,0.40
2018-02-14T18:58:29.115Z,0.30
2018-02-14T19:00:57.191Z,0.30
2018-02-14T19:03:31.586Z,0.30
2018-02-14T19:06:01.046Z,0.30
2018-02-14T19:08:45.094Z,0.20
2018-02-14T19:11:14.643Z,0.20
2018-02-14T19:13:44.790Z,0.20
2018-02-14T19:16:12.978Z,0.20
2018-02-14T19:18:42.776Z,0.10
2018-02-14T19:21:10.865Z,0.10
2018-02-14T19:23:40.051Z,0.10
2018-02-14T19:26:09.023Z,0.20
2018-02-14T19:28:37.501Z,0.10
2018-02-14T19:31:12.667Z,0.10
2018-02-14T19:33:41.016Z,0.00
2018-02-14T19:36:12.758Z,0.00
2018-02-14T19:38:43.478Z,-0.10
2018-02-14T19:41:15.428Z,-0.10
2018-02-14T19:43:44.723Z,-0.10
2018-02-14T19:46:20.002Z,-0.10
2018-02-14T19:48:51.878Z,-0.20
2018-02-14T19:51:24.748Z,-0.20
2018-02-14T19:53:52.870Z,-0.10
2018-02-14T19:56:32.547Z,-0.20
2018-02-14T19:59:20.819Z,-0.20
2018-02-14T20:01:54.634Z,-0.20
2018-02-14T20:04:23.533Z,-0.30
2018-02-14T20:06:51.694Z,-0.30
2018-02-14T20:09:19.889Z,-0.20
2018-02-14T20:11:47.995Z,-0.30
2018-02-14T20:14:36.742Z,-0.30
2018-02-14T20:17:13.306Z,-0.30
2018-02-14T20:19:41.546Z,-0.40
2018-02-14T20:22:14.267Z,-0.40
2018-02-14T20:24:43.383Z,-0.40
2018-02-14T20:27:12.968Z,-0.50
2018-02-14T20:29:41.272Z,-0.50
2018-02-14T20:32:29.493Z,-0.50
2018-02-14T20:37:31.351Z,-0.50
2018-02-14T20:39:59.498Z,-0.50
2018-02-14T20:42:27.722Z,-0.50
2018-02-14T20:44:55.872Z,-0.60
2018-02-14T20:47:26.731Z,-0.70
2018-02-14T20:50:05.158Z,-0.60
2018-02-14T20:52:37.115Z,-0.60
2018-02-14T20:55:06.201Z,-0.60
2018-02-14T20:57:34.306Z,-0.60
2018-02-14T21:00:14.455Z,-0.70
2018-02-14T21:02:45.233Z,-0.70
2018-02-14T21:05:23.695Z,-0.70
2018-02-14T21:07:52.750Z,-0.70
2018-02-14T21:10:23.598Z,-0.70
2018-02-14T21:12:55.557Z,-0.70
2018-02-14T21:15:35.159Z,-0.80
2018-02-14T21:18:04.432Z,-0.80
2018-02-14T21:20:33.714Z,-0.80
2018-02-14T21:23:07.699Z,-0.80
2018-02-14T21:25:41.925Z,-0.80
2018-02-14T21:28:12.000Z,-0.90
2018-02-14T21:30:56.895Z,-0.90
2018-02-14T21:33:25.792Z,-0.90
2018-02-14T21:35:56.628Z,-1.00
2018-02-14T21:38:28.992Z,-1.00
2018-02-14T21:41:03.074Z,-1.00
2018-02-14T21:43:31.344Z,-1.00
2018-02-14T21:46:03.973Z,-1.00
2018-02-14T21:48:34.118Z,-1.00
2018-02-14T21:51:05.260Z,-1.00
2018-02-14T21:53:37.960Z,-1.00
2018-02-14T21:56:07.296Z,-1.00
2018-02-14T21:58:47.530Z,-1.00
2018-02-14T22:01:17.669Z,-1.00
2018-02-14T22:03:49.129Z,-1.00
2018-02-14T22:06:22.679Z,-1.10
2018-02-14T22:08:50.778Z,-1.10
2018-02-14T22:11:19.690Z,-1.10
2018-02-14T22:13:48.641Z,-1.10
2018-02-14T22:16:16.747Z,-1.10
2018-02-14T22:18:44.911Z,-1.10
2018-02-14T22:21:15.867Z,-1.10
2018-02-14T22:23:48.118Z,-1.10
2018-02-14T22:26:22.710Z,-1.10
2018-02-14T22:28:58.710Z,-1.00
2018-02-14T22:31:28.567Z,-1.00
2018-02-14T22:36:51.963Z,-1.00
2018-02-14T22:39:22.014Z,-1.10
2018-02-14T22:41:54.115Z,-1.00
2018-02-14T22:44:26.863Z,-1.10
2018-02-14T22:46:59.758Z,-1.10
2018-02-14T22:49:33.750Z,-1.10
2018-02-14T22:52:08.386Z,-1.10
2018-02-14T22:54:40.399Z,-1.10
2018-02-14T22:57:09.554Z,-1.10
2018-02-14T23:00:00.400Z,-1.10
2018-02-14T23:02:28.513Z,-1.10
2018-02-14T23:04:56.647Z,-1.10
2018-02-14T23:10:33.302Z,-1.10
2018-02-14T23:13:07.762Z,-1.10
2018-02-14T23:15:36.824Z,-1.10
2018-02-14T23:18:15.245Z,-1.00
2018-02-14T23:20:47.279Z,-1.00
2018-02-14T23:23:33.522Z,-0.80
2018-02-14T23:26:07.851Z,-0.70
2018-02-14T23:28:38.022Z,-0.80
2018-02-14T23:31:17.149Z,-0.70
2018-02-14T23:36:44.831Z,-0.80
2018-02-14T23:39:26.152Z,-0.80
2018-02-14T23:42:01.099Z,-0.70
2018-02-14T23:44:30.156Z,-0.70
2018-02-14T23:47:17.338Z,-0.80
2018-02-14T23:49:46.299Z,-0.80
2018-02-14T23:52:14.475Z,-0.70
2018-02-14T23:54:42.580Z,-0.80
2018-02-14T23:57:17.950Z,-0.70
2018-02-14T23:59:57.651Z,-0.70
